createdAt,value
2019-03-20T00:04:49.219Z,34.1
2019-03-20T00:09:37.575Z,34.4
2019-03-20T00:17:03.960Z,34.9
2019-03-20T00:21:51.778Z,35
2019-03-20T00:26:39.260Z,35.2
2019-03-20T00:31:26.742Z,35.4
2019-03-20T00:36:13.717Z,35.7
2019-03-20T00:41:01.059Z,35.9
2019-03-20T00:46:36.291Z,36.1
2019-03-20T00:51:23.783Z,36.3
2019-03-20T00:56:11.804Z,36.5
2019-03-20T01:01:00.080Z,36.7
2019-03-20T01:05:48.280Z,36.9
2019-03-20T01:10:35.522Z,37.1
2019-03-20T01:17:58.444Z,37.3
2019-03-20T01:22:45.329Z,37.5
2019-03-20T01:27:34.114Z,37.6
2019-03-20T01:32:21.239Z,37.8
2019-03-20T01:37:08.646Z,37.9
2019-03-20T01:41:55.934Z,38.1
2019-03-20T01:47:45.567Z,38.3
2019-03-20T01:52:32.937Z,38.5
2019-03-20T01:57:20.468Z,38.6
2019-03-20T02:02:07.703Z,38.8
2019-03-20T02:06:54.741Z,38.9
2019-03-20T02:11:42.033Z,39.1
2019-03-20T02:19:06.388Z,39.4
2019-03-20T02:23:54.315Z,39.5
2019-03-20T02:28:43.629Z,39.6
2019-03-20T02:33:30.899Z,39.7
2019-03-20T02:38:17.736Z,39.8
2019-03-20T02:43:05.537Z,40
2019-03-20T02:48:39.217Z,40.2
2019-03-20T02:53:28.575Z,40.3
2019-03-20T02:58:15.887Z,40.5
2019-03-20T03:03:03.748Z,40.6
2019-03-20T03:07:52.567Z,40.7
2019-03-20T03:12:40.230Z,40.9
2019-03-20T03:20:06.465Z,41
2019-03-20T03:24:53.253Z,41.1
2019-03-20T03:29:40.878Z,41.3
2019-03-20T03:34:28.547Z,41.4
2019-03-20T03:39:16.151Z,41.5
2019-03-20T03:44:03.017Z,41.7
2019-03-20T03:51:11.122Z,41.9
2019-03-20T03:55:58.015Z,42
2019-03-20T04:00:45.989Z,42.1
2019-03-20T04:05:33.409Z,42.2
2019-03-20T04:10:20.141Z,42.4
2019-03-20T04:15:08.569Z,42.5
2019-03-20T04:20:59.089Z,42.6
2019-03-20T04:25:46.191Z,42.8
2019-03-20T04:30:34.304Z,42.8
2019-03-20T04:35:21.159Z,43
2019-03-20T04:40:07.930Z,43.1
2019-03-20T04:44:56.971Z,43.2
2019-03-20T04:52:22.860Z,43.4
2019-03-20T04:57:09.997Z,43.5
2019-03-20T05:01:57.810Z,43.6
2019-03-20T05:06:44.756Z,43.7
2019-03-20T05:11:32.076Z,43.9
2019-03-20T05:16:19.908Z,44
2019-03-20T05:23:27.530Z,44.2
2019-03-20T05:28:14.870Z,44.3
2019-03-20T05:33:01.631Z,44.4
2019-03-20T05:37:50.394Z,44.5
2019-03-20T05:42:37.856Z,44.6
2019-03-20T05:47:25.714Z,44.8
2019-03-20T05:53:15.639Z,44.9
2019-03-20T05:58:04.465Z,45
2019-03-20T06:02:54.021Z,45.2
2019-03-20T06:07:41.229Z,45.2
2019-03-20T06:12:29.173Z,45.3
2019-03-20T06:21:11.346Z,45.5
2019-03-20T06:25:58.846Z,45.6
2019-03-20T06:30:45.702Z,45.6
2019-03-20T06:35:33.132Z,45.7
2019-03-20T06:40:21.350Z,45.8
2019-03-20T06:47:28.914Z,46
2019-03-20T06:52:16.820Z,46
2019-03-20T06:57:03.866Z,46
2019-03-20T07:01:50.896Z,46.1
2019-03-20T07:06:38.676Z,46.2
2019-03-20T07:12:44.196Z,46.3
2019-03-20T07:17:31.536Z,46.4
2019-03-20T07:22:18.936Z,46.5
2019-03-20T07:27:06.277Z,46.5
2019-03-20T07:31:53.563Z,46.6
2019-03-20T07:39:49.375Z,46.6
2019-03-20T07:44:36.223Z,46.6
2019-03-20T07:49:25.113Z,46.7
2019-03-20T07:54:12.574Z,46.7
2019-03-20T07:59:00.545Z,46.8
2019-03-20T08:06:31.566Z,46.8
2019-03-20T08:11:20.297Z,46.8
2019-03-20T08:16:07.861Z,46.9
2019-03-20T08:20:54.993Z,47
2019-03-20T08:25:43.009Z,47
2019-03-20T08:30:29.905Z,47.1
2019-03-20T08:37:06.649Z,47.1
2019-03-20T08:41:53.617Z,47.1
2019-03-20T08:46:40.671Z,47.1
2019-03-20T08:51:28.919Z,47.1
2019-03-20T08:56:17.692Z,47.1
2019-03-20T09:01:04.834Z,47.1
2019-03-20T09:05:51.803Z,47.1
2019-03-20T09:13:16.624Z,47.1
2019-03-20T09:18:04.060Z,47.1
2019-03-20T09:22:51.802Z,47.1
2019-03-20T09:27:39.774Z,47.1
2019-03-20T09:32:26.749Z,47.1
2019-03-20T09:37:14.843Z,47.1
2019-03-20T09:42:04.223Z,47.1
2019-03-20T09:46:51.458Z,47.1
2019-03-20T09:51:38.448Z,47
2019-03-20T09:56:25.554Z,47
2019-03-20T10:01:12.903Z,47
2019-03-20T10:06:00.011Z,47
2019-03-20T10:10:47.753Z,47
2019-03-20T10:15:35.434Z,47
2019-03-20T10:20:22.368Z,47
2019-03-20T10:25:12.133Z,47
2019-03-20T10:30:00.472Z,47
2019-03-20T10:34:48.021Z,47
2019-03-20T10:39:35.070Z,46.8
2019-03-20T10:44:22.542Z,46.8
2019-03-20T10:49:09.908Z,46.8
2019-03-20T10:53:57.154Z,46.8
2019-03-20T10:58:44.199Z,46.8
2019-03-20T11:03:31.758Z,46.7
2019-03-20T11:08:19.253Z,46.7
2019-03-20T11:13:06.208Z,46.7
2019-03-20T11:17:54.857Z,46.7
2019-03-20T11:22:42.673Z,46.7
2019-03-20T11:27:33.118Z,46.6
2019-03-20T11:32:21.251Z,46.6
2019-03-20T11:37:08.290Z,46.6
2019-03-20T11:41:55.713Z,46.5
2019-03-20T11:46:43.352Z,46.5
2019-03-20T11:51:31.524Z,46.5
2019-03-20T11:56:18.848Z,46.5
2019-03-20T12:01:05.802Z,46.5
2019-03-20T12:05:52.910Z,46.5
2019-03-20T12:10:40.188Z,46.4
2019-03-20T12:15:27.440Z,46.4
2019-03-20T12:20:15.236Z,46.4
2019-03-20T12:25:02.234Z,46.4
2019-03-20T12:29:49.118Z,46.4
2019-03-20T12:34:36.750Z,46.4
2019-03-20T12:39:24.232Z,46.4
2019-03-20T12:44:11.262Z,46.4
2019-03-20T12:48:59.806Z,46.4
2019-03-20T12:53:46.694Z,46.4
2019-03-20T12:58:34.164Z,46.4
2019-03-20T13:03:21.165Z,46.4
2019-03-20T13:08:08.134Z,46.4
2019-03-20T13:12:55.472Z,46.4
2019-03-20T13:17:42.821Z,46.4
2019-03-20T13:22:30.120Z,46.4
2019-03-20T13:27:16.956Z,46.4
2019-03-20T13:32:04.664Z,46.4
2019-03-20T13:36:51.816Z,46.4
2019-03-20T13:41:38.916Z,46.4
2019-03-20T13:46:26.928Z,46.4
2019-03-20T13:51:15.349Z,46.4
2019-03-20T13:56:02.695Z,46.4
2019-03-20T14:00:50.156Z,46.4
2019-03-20T14:05:38.987Z,46.3
2019-03-20T14:10:25.950Z,46.4
2019-03-20T14:15:12.885Z,46.4
2019-03-20T14:20:00.325Z,46.4
2019-03-20T14:24:47.310Z,46.4
2019-03-20T14:29:34.300Z,46.4
2019-03-20T14:34:23.263Z,46.4
2019-03-20T14:39:10.700Z,46.4
2019-03-20T14:43:57.671Z,46.4
2019-03-20T14:48:45.457Z,46.3
2019-03-20T14:53:32.412Z,46.3
2019-03-20T14:58:19.410Z,46.3
2019-03-20T15:03:06.517Z,46.3
2019-03-20T15:07:53.780Z,46.3
2019-03-20T15:12:41.530Z,46.3
2019-03-20T15:17:29.274Z,46.3
2019-03-20T15:22:16.762Z,46.3
2019-03-20T15:27:04.761Z,46.3
2019-03-20T15:31:51.904Z,46.3
2019-03-20T15:36:38.980Z,46.3
2019-03-20T15:41:26.325Z,46.3
2019-03-20T15:46:13.600Z,46.3
2019-03-20T15:51:01.691Z,46.2
2019-03-20T15:55:48.760Z,46.2
2019-03-20T16:00:35.921Z,46.2
2019-03-20T16:05:22.847Z,46.1
2019-03-20T16:10:10.620Z,46
2019-03-20T16:14:58.608Z,46
2019-03-20T16:19:47.888Z,46
2019-03-20T16:24:35.253Z,46
2019-03-20T16:29:22.139Z,46
2019-03-20T16:34:10.192Z,46.1
2019-03-20T16:38:57.424Z,46
2019-03-20T16:43:44.709Z,46
2019-03-20T16:48:32.052Z,46
2019-03-20T16:53:19.471Z,46.1
2019-03-20T16:58:06.896Z,46
2019-03-20T17:02:54.225Z,46
2019-03-20T17:07:41.210Z,46
2019-03-20T17:12:29.085Z,46
2019-03-20T17:17:16.288Z,46
2019-03-20T17:22:03.408Z,46
2019-03-20T17:26:50.381Z,46
2019-03-20T17:31:37.243Z,45.9
2019-03-20T17:36:24.192Z,45.9
2019-03-20T17:41:11.011Z,45.9
2019-03-20T17:45:58.260Z,45.9
2019-03-20T17:50:47.234Z,45.9
2019-03-20T17:55:34.498Z,45.9
2019-03-20T18:00:21.718Z,45.8
2019-03-20T18:05:10.730Z,45.8
2019-03-20T18:09:57.896Z,45.8
2019-03-20T18:14:44.754Z,45.8
2019-03-20T18:19:32.160Z,45.8
2019-03-20T18:24:19.690Z,45.8
2019-03-20T18:29:06.933Z,45.6
2019-03-20T18:33:53.750Z,45.6
2019-03-20T18:38:41.190Z,45.5
2019-03-20T18:43:28.659Z,45.4
2019-03-20T18:48:15.586Z,45.3
2019-03-20T18:53:04.043Z,45.3
2019-03-20T18:57:50.908Z,45.2
2019-03-20T19:02:38.358Z,45.2
2019-03-20T19:07:25.939Z,45.2
2019-03-20T19:12:13.252Z,45.1
2019-03-20T19:17:00.299Z,45.1
2019-03-20T19:21:47.480Z,45
2019-03-20T19:26:35.157Z,44.9
2019-03-20T19:31:21.874Z,44.8
2019-03-20T19:36:09.550Z,44.7
2019-03-20T19:40:56.862Z,44.7
2019-03-20T19:45:43.969Z,44.6
2019-03-20T19:50:31.272Z,44.6
2019-03-20T19:55:18.767Z,44.6
2019-03-20T20:00:06.209Z,44.5
2019-03-20T20:04:53.198Z,44.5
2019-03-20T20:09:40.692Z,44.5
2019-03-20T20:14:27.921Z,44.3
2019-03-20T20:19:14.951Z,44.2
2019-03-20T20:24:02.697Z,44
2019-03-20T20:28:51.712Z,44
2019-03-20T20:33:38.923Z,43.9
2019-03-20T20:38:26.078Z,43.8
2019-03-20T20:43:12.958Z,43.7
2019-03-20T20:47:59.860Z,43.6
2019-03-20T20:52:48.659Z,43.5
2019-03-20T20:57:35.942Z,43.5
2019-03-20T21:02:22.874Z,43.4
2019-03-20T21:07:09.713Z,43.3
2019-03-20T21:11:56.934Z,43.2
2019-03-20T21:16:44.266Z,43.1
2019-03-20T21:21:31.657Z,42.9
2019-03-20T21:26:19.302Z,42.1
2019-03-20T21:31:06.691Z,41.4
2019-03-20T21:35:54.471Z,41
2019-03-20T21:40:41.869Z,40.5
2019-03-20T21:45:29.094Z,39.7
2019-03-20T21:50:16.433Z,38.9
2019-03-20T21:55:04.083Z,38.1
2019-03-20T21:59:50.881Z,37.5
2019-03-20T22:04:38.279Z,36.9
2019-03-20T22:09:25.953Z,36.4
2019-03-20T22:14:13.068Z,36.3
2019-03-20T22:19:00.426Z,36
2019-03-20T22:23:47.797Z,35.8
2019-03-20T22:28:36.408Z,35.6
2019-03-20T22:33:23.901Z,35.3
2019-03-20T22:38:11.749Z,35
2019-03-20T22:43:00.936Z,34.4
2019-03-20T22:47:49.401Z,33.9
2019-03-20T22:52:36.679Z,33.3
2019-03-20T22:57:23.685Z,32.8
2019-03-20T23:02:10.815Z,32.3
2019-03-20T23:06:57.895Z,31.8
2019-03-20T23:11:44.976Z,30.8
2019-03-20T23:16:31.756Z,30.2
2019-03-20T23:21:19.707Z,29.9
2019-03-20T23:26:06.799Z,29.5
2019-03-20T23:30:55.055Z,29.2
2019-03-20T23:35:42.450Z,28.8
2019-03-20T23:40:30.872Z,28.4
2019-03-20T23:45:17.861Z,28.3
2019-03-20T23:50:04.923Z,28
2019-03-20T23:54:51.934Z,27.8
2019-03-20T23:59:39.282Z,27.5
